sensor_id;sensor_type;location;lat;lon;timestamp;P1;durP1;ratioP1;P2;durP2;ratioP2
75916;SDS011;64595;50.148;14.334;2023-12-20T00:00:43;5.80;;;4.05;;
75916;SDS011;64595;50.148;14.334;2023-12-20T00:03:08;6.25;;;4.10;;
75916;SDS011;64595;50.148;14.334;2023-12-20T00:08:36;6.97;;;3.67;;
75916;SDS011;64595;50.148;14.334;2023-12-20T00:11:01;7.75;;;4.70;;
75916;SDS011;64595;50.148;14.334;2023-12-20T00:13:27;5.30;;;3.90;;
75916;SDS011;64595;50.148;14.334;2023-12-20T00:15:52;6.70;;;3.88;;
75916;SDS011;64595;50.148;14.334;2023-12-20T00:18:18;7.97;;;5.50;;
75916;SDS011;64595;50.148;14.334;2023-12-20T00:20:43;6.55;;;4.72;;
75916;SDS011;64595;50.148;14.334;2023-12-20T00:23:09;7.03;;;4.28;;
75916;SDS011;64595;50.148;14.334;2023-12-20T00:25:35;7.05;;;4.32;;
75916;SDS011;64595;50.148;14.334;2023-12-20T00:28:01;5.47;;;3.85;;
75916;SDS011;64595;50.148;14.334;2023-12-20T00:30:26;7.90;;;5.32;;
75916;SDS011;64595;50.148;14.334;2023-12-20T00:32:52;7.97;;;4.57;;
75916;SDS011;64595;50.148;14.334;2023-12-20T00:35:18;9.38;;;5.63;;
75916;SDS011;64595;50.148;14.334;2023-12-20T00:37:43;7.72;;;5.35;;
75916;SDS011;64595;50.148;14.334;2023-12-20T00:40:09;8.48;;;5.18;;
75916;SDS011;64595;50.148;14.334;2023-12-20T00:42:37;8.15;;;6.03;;
75916;SDS011;64595;50.148;14.334;2023-12-20T00:45:03;7.03;;;4.53;;
75916;SDS011;64595;50.148;14.334;2023-12-20T00:47:29;8.38;;;4.97;;
75916;SDS011;64595;50.148;14.334;2023-12-20T00:49:54;7.05;;;4.53;;
75916;SDS011;64595;50.148;14.334;2023-12-20T00:52:20;9.13;;;5.97;;
75916;SDS011;64595;50.148;14.334;2023-12-20T00:54:45;7.05;;;5.15;;
75916;SDS011;64595;50.148;14.334;2023-12-20T00:57:10;6.85;;;4.57;;
75916;SDS011;64595;50.148;14.334;2023-12-20T00:59:37;9.57;;;6.68;;
75916;SDS011;64595;50.148;14.334;2023-12-20T01:02:03;11.27;;;6.78;;
75916;SDS011;64595;50.148;14.334;2023-12-20T01:04:29;10.60;;;5.47;;
75916;SDS011;64595;50.148;14.334;2023-12-20T01:06:54;11.15;;;6.72;;
75916;SDS011;64595;50.148;14.334;2023-12-20T01:09:20;10.48;;;6.50;;
75916;SDS011;64595;50.148;14.334;2023-12-20T01:11:45;8.52;;;5.15;;
75916;SDS011;64595;50.148;14.334;2023-12-20T01:14:11;8.93;;;5.93;;
75916;SDS011;64595;50.148;14.334;2023-12-20T01:16:37;9.60;;;5.70;;
75916;SDS011;64595;50.148;14.334;2023-12-20T01:19:03;7.07;;;5.22;;
75916;SDS011;64595;50.148;14.334;2023-12-20T01:21:28;8.90;;;5.30;;
75916;SDS011;64595;50.148;14.334;2023-12-20T01:23:54;7.78;;;5.22;;
75916;SDS011;64595;50.148;14.334;2023-12-20T01:26:19;8.68;;;5.15;;
75916;SDS011;64595;50.148;14.334;2023-12-20T01:28:45;9.32;;;5.97;;
75916;SDS011;64595;50.148;14.334;2023-12-20T01:31:10;9.27;;;5.57;;
75916;SDS011;64595;50.148;14.334;2023-12-20T01:33:37;7.97;;;4.78;;
75916;SDS011;64595;50.148;14.334;2023-12-20T01:36:02;7.15;;;5.13;;
75916;SDS011;64595;50.148;14.334;2023-12-20T01:38:28;6.85;;;5.13;;
75916;SDS011;64595;50.148;14.334;2023-12-20T01:40:54;8.43;;;4.60;;
75916;SDS011;64595;50.148;14.334;2023-12-20T01:43:19;9.93;;;5.88;;
75916;SDS011;64595;50.148;14.334;2023-12-20T01:45:45;7.32;;;5.43;;
75916;SDS011;64595;50.148;14.334;2023-12-20T01:48:11;6.97;;;5.55;;
75916;SDS011;64595;50.148;14.334;2023-12-20T01:50:38;8.45;;;5.80;;
75916;SDS011;64595;50.148;14.334;2023-12-20T01:53:04;6.90;;;4.55;;
75916;SDS011;64595;50.148;14.334;2023-12-20T01:55:31;8.43;;;4.75;;
75916;SDS011;64595;50.148;14.334;2023-12-20T01:57:57;8.13;;;5.45;;
75916;SDS011;64595;50.148;14.334;2023-12-20T02:00:23;6.07;;;4.65;;
75916;SDS011;64595;50.148;14.334;2023-12-20T02:02:49;7.85;;;4.78;;
75916;SDS011;64595;50.148;14.334;2023-12-20T02:05:15;7.65;;;4.93;;
75916;SDS011;64595;50.148;14.334;2023-12-20T02:07:43;8.13;;;5.82;;
75916;SDS011;64595;50.148;14.334;2023-12-20T02:10:08;9.25;;;5.72;;
75916;SDS011;64595;50.148;14.334;2023-12-20T02:12:34;11.13;;;5.78;;
75916;SDS011;64595;50.148;14.334;2023-12-20T02:14:59;10.52;;;5.43;;
75916;SDS011;64595;50.148;14.334;2023-12-20T02:17:25;8.07;;;5.18;;
75916;SDS011;64595;50.148;14.334;2023-12-20T02:19:51;10.10;;;5.25;;
75916;SDS011;64595;50.148;14.334;2023-12-20T02:22:17;9.40;;;5.05;;
75916;SDS011;64595;50.148;14.334;2023-12-20T02:24:43;9.10;;;4.97;;
75916;SDS011;64595;50.148;14.334;2023-12-20T02:27:08;7.28;;;5.03;;
75916;SDS011;64595;50.148;14.334;2023-12-20T02:29:34;9.27;;;4.85;;
75916;SDS011;64595;50.148;14.334;2023-12-20T02:32:00;7.95;;;4.68;;
75916;SDS011;64595;50.148;14.334;2023-12-20T02:34:25;7.40;;;5.40;;
75916;SDS011;64595;50.148;14.334;2023-12-20T02:36:51;8.90;;;5.30;;
75916;SDS011;64595;50.148;14.334;2023-12-20T02:39:17;7.45;;;5.40;;
75916;SDS011;64595;50.148;14.334;2023-12-20T02:41:43;7.88;;;5.10;;
75916;SDS011;64595;50.148;14.334;2023-12-20T02:44:09;7.25;;;4.60;;
75916;SDS011;64595;50.148;14.334;2023-12-20T02:46:34;9.45;;;5.60;;
75916;SDS011;64595;50.148;14.334;2023-12-20T02:49:00;5.35;;;4.45;;
75916;SDS011;64595;50.148;14.334;2023-12-20T02:51:25;9.52;;;5.15;;
75916;SDS011;64595;50.148;14.334;2023-12-20T02:53:51;7.88;;;4.55;;
75916;SDS011;64595;50.148;14.334;2023-12-20T02:56:17;6.43;;;4.35;;
75916;SDS011;64595;50.148;14.334;2023-12-20T02:58:43;7.63;;;4.90;;
75916;SDS011;64595;50.148;14.334;2023-12-20T03:01:08;7.88;;;5.45;;
75916;SDS011;64595;50.148;14.334;2023-12-20T03:03:34;10.88;;;5.50;;
75916;SDS011;64595;50.148;14.334;2023-12-20T03:05:59;7.68;;;5.57;;
75916;SDS011;64595;50.148;14.334;2023-12-20T03:08:25;8.75;;;6.18;;
75916;SDS011;64595;50.148;14.334;2023-12-20T03:10:50;8.88;;;5.18;;
75916;SDS011;64595;50.148;14.334;2023-12-20T03:13:17;7.88;;;5.50;;
75916;SDS011;64595;50.148;14.334;2023-12-20T03:15:42;8.85;;;5.22;;
75916;SDS011;64595;50.148;14.334;2023-12-20T03:18:08;9.93;;;5.60;;
75916;SDS011;64595;50.148;14.334;2023-12-20T03:20:33;6.93;;;5.05;;
75916;SDS011;64595;50.148;14.334;2023-12-20T03:22:59;7.68;;;5.22;;
75916;SDS011;64595;50.148;14.334;2023-12-20T03:25:27;8.50;;;5.78;;
75916;SDS011;64595;50.148;14.334;2023-12-20T03:27:52;6.55;;;4.35;;
75916;SDS011;64595;50.148;14.334;2023-12-20T03:30:19;8.13;;;5.32;;
75916;SDS011;64595;50.148;14.334;2023-12-20T03:32:45;6.82;;;3.85;;
75916;SDS011;64595;50.148;14.334;2023-12-20T03:35:11;9.27;;;5.00;;
75916;SDS011;64595;50.148;14.334;2023-12-20T03:37:36;9.98;;;5.45;;
75916;SDS011;64595;50.148;14.334;2023-12-20T03:40:02;5.30;;;3.33;;
75916;SDS011;64595;50.148;14.334;2023-12-20T03:42:27;8.02;;;4.55;;
75916;SDS011;64595;50.148;14.334;2023-12-20T03:44:53;8.73;;;5.47;;
75916;SDS011;64595;50.148;14.334;2023-12-20T03:47:20;7.57;;;4.40;;
75916;SDS011;64595;50.148;14.334;2023-12-20T03:49:45;6.95;;;4.32;;
75916;SDS011;64595;50.148;14.334;2023-12-20T03:52:11;7.53;;;4.68;;
75916;SDS011;64595;50.148;14.334;2023-12-20T03:54:36;7.72;;;4.60;;
75916;SDS011;64595;50.148;14.334;2023-12-20T03:57:02;9.35;;;5.38;;
75916;SDS011;64595;50.148;14.334;2023-12-20T03:59:28;7.55;;;4.80;;
75916;SDS011;64595;50.148;14.334;2023-12-20T04:01:53;7.15;;;4.60;;
75916;SDS011;64595;50.148;14.334;2023-12-20T04:04:22;8.35;;;4.47;;
75916;SDS011;64595;50.148;14.334;2023-12-20T04:06:48;7.47;;;4.63;;
75916;SDS011;64595;50.148;14.334;2023-12-20T04:09:13;6.47;;;4.38;;
75916;SDS011;64595;50.148;14.334;2023-12-20T04:11:39;7.35;;;4.60;;
75916;SDS011;64595;50.148;14.334;2023-12-20T04:14:04;6.38;;;3.65;;
75916;SDS011;64595;50.148;14.334;2023-12-20T04:16:30;7.82;;;4.70;;
75916;SDS011;64595;50.148;14.334;2023-12-20T04:18:55;6.25;;;3.75;;
75916;SDS011;64595;50.148;14.334;2023-12-20T04:21:22;5.75;;;4.22;;
75916;SDS011;64595;50.148;14.334;2023-12-20T04:23:47;6.07;;;4.10;;
75916;SDS011;64595;50.148;14.334;2023-12-20T04:26:13;6.35;;;3.90;;
75916;SDS011;64595;50.148;14.334;2023-12-20T04:28:38;5.45;;;3.63;;
75916;SDS011;64595;50.148;14.334;2023-12-20T04:31:04;6.40;;;4.05;;
75916;SDS011;64595;50.148;14.334;2023-12-20T04:33:29;6.57;;;3.95;;
75916;SDS011;64595;50.148;14.334;2023-12-20T04:35:55;6.00;;;4.10;;
75916;SDS011;64595;50.148;14.334;2023-12-20T04:38:22;5.95;;;3.92;;
75916;SDS011;64595;50.148;14.334;2023-12-20T04:40:47;6.60;;;4.18;;
75916;SDS011;64595;50.148;14.334;2023-12-20T04:43:13;6.82;;;4.30;;
75916;SDS011;64595;50.148;14.334;2023-12-20T04:45:38;6.88;;;3.97;;
75916;SDS011;64595;50.148;14.334;2023-12-20T04:48:04;7.78;;;4.80;;
75916;SDS011;64595;50.148;14.334;2023-12-20T04:50:30;8.07;;;4.45;;
75916;SDS011;64595;50.148;14.334;2023-12-20T04:52:55;7.47;;;4.50;;
75916;SDS011;64595;50.148;14.334;2023-12-20T04:55:22;7.25;;;4.50;;
75916;SDS011;64595;50.148;14.334;2023-12-20T04:57:48;6.05;;;4.05;;
75916;SDS011;64595;50.148;14.334;2023-12-20T05:00:13;7.05;;;4.63;;
75916;SDS011;64595;50.148;14.334;2023-12-20T05:02:41;7.18;;;4.35;;
75916;SDS011;64595;50.148;14.334;2023-12-20T05:05:07;6.45;;;4.13;;
75916;SDS011;64595;50.148;14.334;2023-12-20T05:07:33;6.57;;;4.07;;
75916;SDS011;64595;50.148;14.334;2023-12-20T05:09:58;7.68;;;4.60;;
75916;SDS011;64595;50.148;14.334;2023-12-20T05:12:25;7.05;;;4.18;;
75916;SDS011;64595;50.148;14.334;2023-12-20T05:14:51;7.10;;;4.45;;
75916;SDS011;64595;50.148;14.334;2023-12-20T05:17:17;7.57;;;5.05;;
75916;SDS011;64595;50.148;14.334;2023-12-20T05:19:42;9.68;;;5.57;;
75916;SDS011;64595;50.148;14.334;2023-12-20T05:22:08;7.18;;;4.72;;
75916;SDS011;64595;50.148;14.334;2023-12-20T05:24:33;6.65;;;4.50;;
75916;SDS011;64595;50.148;14.334;2023-12-20T05:26:58;7.25;;;3.75;;
75916;SDS011;64595;50.148;14.334;2023-12-20T05:29:25;6.32;;;4.35;;
75916;SDS011;64595;50.148;14.334;2023-12-20T05:31:51;5.35;;;3.58;;
75916;SDS011;64595;50.148;14.334;2023-12-20T05:34:16;6.80;;;4.15;;
75916;SDS011;64595;50.148;14.334;2023-12-20T05:36:42;5.15;;;3.42;;
75916;SDS011;64595;50.148;14.334;2023-12-20T05:39:07;6.93;;;3.72;;
75916;SDS011;64595;50.148;14.334;2023-12-20T05:41:33;5.88;;;3.60;;
75916;SDS011;64595;50.148;14.334;2023-12-20T05:43:58;6.20;;;3.50;;
75916;SDS011;64595;50.148;14.334;2023-12-20T05:46:25;5.85;;;3.50;;
75916;SDS011;64595;50.148;14.334;2023-12-20T05:48:51;7.40;;;4.75;;
75916;SDS011;64595;50.148;14.334;2023-12-20T05:51:16;7.30;;;3.63;;
75916;SDS011;64595;50.148;14.334;2023-12-20T05:53:42;5.45;;;3.70;;
75916;SDS011;64595;50.148;14.334;2023-12-20T05:56:07;6.68;;;3.83;;
75916;SDS011;64595;50.148;14.334;2023-12-20T05:58:33;6.63;;;3.88;;
75916;SDS011;64595;50.148;14.334;2023-12-20T06:00:58;7.20;;;4.32;;
75916;SDS011;64595;50.148;14.334;2023-12-20T06:03:25;5.82;;;3.78;;
75916;SDS011;64595;50.148;14.334;2023-12-20T06:05:50;5.25;;;3.47;;
75916;SDS011;64595;50.148;14.334;2023-12-20T06:08:16;5.57;;;4.00;;
75916;SDS011;64595;50.148;14.334;2023-12-20T06:10:41;11.48;;;4.72;;
75916;SDS011;64595;50.148;14.334;2023-12-20T06:13:07;4.80;;;3.22;;
75916;SDS011;64595;50.148;14.334;2023-12-20T06:15:32;6.00;;;3.70;;
75916;SDS011;64595;50.148;14.334;2023-12-20T06:17:58;5.80;;;3.90;;
75916;SDS011;64595;50.148;14.334;2023-12-20T06:20:26;5.95;;;3.45;;
75916;SDS011;64595;50.148;14.334;2023-12-20T06:22:52;5.88;;;3.58;;
75916;SDS011;64595;50.148;14.334;2023-12-20T06:25:19;5.18;;;3.95;;
75916;SDS011;64595;50.148;14.334;2023-12-20T06:27:44;6.00;;;4.05;;
75916;SDS011;64595;50.148;14.334;2023-12-20T06:30:10;5.28;;;3.50;;
75916;SDS011;64595;50.148;14.334;2023-12-20T06:32:36;5.55;;;3.50;;
75916;SDS011;64595;50.148;14.334;2023-12-20T06:35:01;6.28;;;3.78;;
75916;SDS011;64595;50.148;14.334;2023-12-20T06:37:28;4.07;;;2.80;;
75916;SDS011;64595;50.148;14.334;2023-12-20T06:39:53;5.45;;;3.15;;
75916;SDS011;64595;50.148;14.334;2023-12-20T06:42:19;4.30;;;3.00;;
75916;SDS011;64595;50.148;14.334;2023-12-20T06:44:44;4.65;;;2.90;;
75916;SDS011;64595;50.148;14.334;2023-12-20T06:47:10;5.35;;;3.60;;
75916;SDS011;64595;50.148;14.334;2023-12-20T06:49:35;4.32;;;2.80;;
75916;SDS011;64595;50.148;14.334;2023-12-20T06:52:00;4.50;;;2.92;;
75916;SDS011;64595;50.148;14.334;2023-12-20T06:54:27;3.92;;;2.70;;
75916;SDS011;64595;50.148;14.334;2023-12-20T06:56:53;5.45;;;2.60;;
75916;SDS011;64595;50.148;14.334;2023-12-20T06:59:18;3.13;;;2.38;;
75916;SDS011;64595;50.148;14.334;2023-12-20T07:01:47;5.25;;;2.53;;
75916;SDS011;64595;50.148;14.334;2023-12-20T07:04:13;3.95;;;2.58;;
75916;SDS011;64595;50.148;14.334;2023-12-20T07:06:38;4.90;;;2.80;;
75916;SDS011;64595;50.148;14.334;2023-12-20T07:09:04;4.20;;;2.80;;
75916;SDS011;64595;50.148;14.334;2023-12-20T07:11:30;4.10;;;2.50;;
75916;SDS011;64595;50.148;14.334;2023-12-20T07:13:56;2.90;;;1.77;;
75916;SDS011;64595;50.148;14.334;2023-12-20T07:16:21;5.35;;;2.40;;
75916;SDS011;64595;50.148;14.334;2023-12-20T07:18:47;4.18;;;2.35;;
75916;SDS011;64595;50.148;14.334;2023-12-20T07:21:12;3.95;;;2.42;;
75916;SDS011;64595;50.148;14.334;2023-12-20T07:23:38;5.30;;;2.20;;
75916;SDS011;64595;50.148;14.334;2023-12-20T07:26:03;4.05;;;2.33;;
75916;SDS011;64595;50.148;14.334;2023-12-20T07:28:30;3.50;;;2.17;;
75916;SDS011;64595;50.148;14.334;2023-12-20T07:30:55;3.25;;;2.15;;
75916;SDS011;64595;50.148;14.334;2023-12-20T07:33:21;4.43;;;2.17;;
75916;SDS011;64595;50.148;14.334;2023-12-20T07:35:46;3.22;;;2.10;;
75916;SDS011;64595;50.148;14.334;2023-12-20T07:38:12;5.15;;;2.30;;
75916;SDS011;64595;50.148;14.334;2023-12-20T07:40:37;3.03;;;2.00;;
75916;SDS011;64595;50.148;14.334;2023-12-20T07:43:03;2.38;;;1.55;;
75916;SDS011;64595;50.148;14.334;2023-12-20T07:45:30;2.85;;;1.80;;
75916;SDS011;64595;50.148;14.334;2023-12-20T07:47:57;2.83;;;1.75;;
75916;SDS011;64595;50.148;14.334;2023-12-20T07:50:23;4.88;;;2.40;;
75916;SDS011;64595;50.148;14.334;2023-12-20T07:52:48;3.97;;;2.20;;
75916;SDS011;64595;50.148;14.334;2023-12-20T07:55:14;2.88;;;1.83;;
75916;SDS011;64595;50.148;14.334;2023-12-20T07:57:39;3.63;;;1.80;;
75916;SDS011;64595;50.148;14.334;2023-12-20T08:00:05;2.38;;;1.48;;
75916;SDS011;64595;50.148;14.334;2023-12-20T08:02:33;4.13;;;1.85;;
75916;SDS011;64595;50.148;14.334;2023-12-20T08:04:58;2.08;;;1.40;;
75916;SDS011;64595;50.148;14.334;2023-12-20T08:07:24;4.50;;;2.08;;
75916;SDS011;64595;50.148;14.334;2023-12-20T08:09:49;2.65;;;1.70;;
75916;SDS011;64595;50.148;14.334;2023-12-20T08:12:15;2.50;;;1.67;;
75916;SDS011;64595;50.148;14.334;2023-12-20T08:14:40;3.20;;;2.17;;
75916;SDS011;64595;50.148;14.334;2023-12-20T08:17:06;4.95;;;2.28;;
75916;SDS011;64595;50.148;14.334;2023-12-20T08:19:32;2.55;;;1.95;;
75916;SDS011;64595;50.148;14.334;2023-12-20T08:21:58;3.15;;;2.20;;
75916;SDS011;64595;50.148;14.334;2023-12-20T08:24:23;4.55;;;1.92;;
75916;SDS011;64595;50.148;14.334;2023-12-20T08:26:49;4.43;;;2.40;;
75916;SDS011;64595;50.148;14.334;2023-12-20T08:29:14;3.25;;;2.08;;
75916;SDS011;64595;50.148;14.334;2023-12-20T08:31:40;3.60;;;2.40;;
75916;SDS011;64595;50.148;14.334;2023-12-20T08:34:05;5.85;;;2.70;;
75916;SDS011;64595;50.148;14.334;2023-12-20T08:36:32;4.65;;;3.00;;
75916;SDS011;64595;50.148;14.334;2023-12-20T08:38:58;3.80;;;2.30;;
75916;SDS011;64595;50.148;14.334;2023-12-20T08:41:23;4.28;;;2.38;;
75916;SDS011;64595;50.148;14.334;2023-12-20T08:43:49;4.03;;;2.25;;
75916;SDS011;64595;50.148;14.334;2023-12-20T08:46:14;4.78;;;2.20;;
75916;SDS011;64595;50.148;14.334;2023-12-20T08:48:40;4.80;;;2.40;;
75916;SDS011;64595;50.148;14.334;2023-12-20T08:51:05;3.33;;;1.98;;
75916;SDS011;64595;50.148;14.334;2023-12-20T08:53:33;4.10;;;2.15;;
75916;SDS011;64595;50.148;14.334;2023-12-20T08:55:58;3.90;;;2.20;;
75916;SDS011;64595;50.148;14.334;2023-12-20T08:58:24;3.83;;;2.03;;
75916;SDS011;64595;50.148;14.334;2023-12-20T09:00:50;4.40;;;2.30;;
75916;SDS011;64595;50.148;14.334;2023-12-20T09:03:15;3.63;;;2.20;;
75916;SDS011;64595;50.148;14.334;2023-12-20T09:05:41;4.40;;;2.70;;
75916;SDS011;64595;50.148;14.334;2023-12-20T09:08:06;3.30;;;1.85;;
75916;SDS011;64595;50.148;14.334;2023-12-20T09:10:33;4.38;;;1.92;;
75916;SDS011;64595;50.148;14.334;2023-12-20T09:12:59;3.42;;;2.35;;
75916;SDS011;64595;50.148;14.334;2023-12-20T09:15:24;4.50;;;2.40;;
75916;SDS011;64595;50.148;14.334;2023-12-20T09:17:50;3.35;;;2.13;;
75916;SDS011;64595;50.148;14.334;2023-12-20T09:20:16;4.88;;;2.40;;
75916;SDS011;64595;50.148;14.334;2023-12-20T09:22:41;4.13;;;1.92;;
75916;SDS011;64595;50.148;14.334;2023-12-20T09:25:07;2.72;;;1.92;;
75916;SDS011;64595;50.148;14.334;2023-12-20T09:27:34;3.50;;;2.13;;
75916;SDS011;64595;50.148;14.334;2023-12-20T09:29:59;3.53;;;2.15;;
75916;SDS011;64595;50.148;14.334;2023-12-20T09:32:32;2.97;;;1.80;;
75916;SDS011;64595;50.148;14.334;2023-12-20T09:34:58;2.45;;;1.50;;
75916;SDS011;64595;50.148;14.334;2023-12-20T09:37:25;2.75;;;2.00;;
75916;SDS011;64595;50.148;14.334;2023-12-20T09:39:51;3.53;;;2.05;;
75916;SDS011;64595;50.148;14.334;2023-12-20T09:42:17;4.07;;;2.10;;
75916;SDS011;64595;50.148;14.334;2023-12-20T09:44:50;3.00;;;1.80;;
75916;SDS011;64595;50.148;14.334;2023-12-20T09:47:15;5.97;;;5.38;;
75916;SDS011;64595;50.148;14.334;2023-12-20T09:49:41;2.60;;;1.67;;
75916;SDS011;64595;50.148;14.334;2023-12-20T09:52:07;2.15;;;1.50;;
75916;SDS011;64595;50.148;14.334;2023-12-20T09:54:34;2.42;;;1.67;;
75916;SDS011;64595;50.148;14.334;2023-12-20T09:57:00;2.20;;;1.60;;
75916;SDS011;64595;50.148;14.334;2023-12-20T09:59:25;2.83;;;1.63;;
75916;SDS011;64595;50.148;14.334;2023-12-20T10:01:52;2.78;;;1.77;;
75916;SDS011;64595;50.148;14.334;2023-12-20T10:04:20;2.53;;;1.60;;
75916;SDS011;64595;50.148;14.334;2023-12-20T10:06:45;3.10;;;1.85;;
75916;SDS011;64595;50.148;14.334;2023-12-20T10:09:12;3.10;;;1.98;;
75916;SDS011;64595;50.148;14.334;2023-12-20T10:11:38;3.30;;;1.80;;
75916;SDS011;64595;50.148;14.334;2023-12-20T10:14:04;2.90;;;1.98;;
75916;SDS011;64595;50.148;14.334;2023-12-20T10:16:30;2.80;;;1.75;;
75916;SDS011;64595;50.148;14.334;2023-12-20T10:18:57;2.85;;;1.98;;
75916;SDS011;64595;50.148;14.334;2023-12-20T10:21:23;2.17;;;1.80;;
75916;SDS011;64595;50.148;14.334;2023-12-20T10:23:48;2.70;;;1.65;;
75916;SDS011;64595;50.148;14.334;2023-12-20T10:26:18;3.28;;;1.80;;
75916;SDS011;64595;50.148;14.334;2023-12-20T10:28:44;2.90;;;1.98;;
75916;SDS011;64595;50.148;14.334;2023-12-20T10:31:10;2.50;;;1.40;;
75916;SDS011;64595;50.148;14.334;2023-12-20T10:33:35;1.33;;;1.23;;
75916;SDS011;64595;50.148;14.334;2023-12-20T10:36:02;2.17;;;1.42;;
75916;SDS011;64595;50.148;14.334;2023-12-20T10:38:30;2.40;;;1.50;;
75916;SDS011;64595;50.148;14.334;2023-12-20T10:40:59;2.00;;;1.48;;
75916;SDS011;64595;50.148;14.334;2023-12-20T10:43:28;3.20;;;1.83;;
75916;SDS011;64595;50.148;14.334;2023-12-20T10:45:56;2.67;;;1.60;;
75916;SDS011;64595;50.148;14.334;2023-12-20T10:51:24;3.17;;;1.95;;
75916;SDS011;64595;50.148;14.334;2023-12-20T10:53:51;2.88;;;1.98;;
75916;SDS011;64595;50.148;14.334;2023-12-20T10:56:17;2.70;;;1.92;;
75916;SDS011;64595;50.148;14.334;2023-12-20T10:58:43;3.75;;;2.00;;
75916;SDS011;64595;50.148;14.334;2023-12-20T11:01:09;2.92;;;1.70;;
75916;SDS011;64595;50.148;14.334;2023-12-20T11:03:35;2.60;;;1.73;;
75916;SDS011;64595;50.148;14.334;2023-12-20T11:06:03;2.72;;;1.90;;
75916;SDS011;64595;50.148;14.334;2023-12-20T11:08:36;3.15;;;2.00;;
75916;SDS011;64595;50.148;14.334;2023-12-20T11:11:07;2.30;;;1.42;;
75916;SDS011;64595;50.148;14.334;2023-12-20T11:13:37;2.92;;;1.73;;
75916;SDS011;64595;50.148;14.334;2023-12-20T11:16:08;3.65;;;1.85;;
75916;SDS011;64595;50.148;14.334;2023-12-20T11:18:35;2.85;;;2.13;;
75916;SDS011;64595;50.148;14.334;2023-12-20T11:21:01;3.55;;;2.28;;
75916;SDS011;64595;50.148;14.334;2023-12-20T11:23:27;3.42;;;1.92;;
75916;SDS011;64595;50.148;14.334;2023-12-20T11:25:55;2.92;;;1.70;;
75916;SDS011;64595;50.148;14.334;2023-12-20T11:28:22;2.78;;;2.00;;
75916;SDS011;64595;50.148;14.334;2023-12-20T11:30:49;3.70;;;2.22;;
75916;SDS011;64595;50.148;14.334;2023-12-20T11:33:16;3.75;;;2.40;;
75916;SDS011;64595;50.148;14.334;2023-12-20T11:35:42;2.60;;;1.90;;
75916;SDS011;64595;50.148;14.334;2023-12-20T11:38:08;2.28;;;1.65;;
75916;SDS011;64595;50.148;14.334;2023-12-20T11:40:33;2.65;;;1.85;;
75916;SDS011;64595;50.148;14.334;2023-12-20T11:43:02;2.72;;;1.80;;
75916;SDS011;64595;50.148;14.334;2023-12-20T11:45:28;3.20;;;1.95;;
75916;SDS011;64595;50.148;14.334;2023-12-20T11:47:53;2.45;;;1.90;;
75916;SDS011;64595;50.148;14.334;2023-12-20T11:50:19;4.32;;;2.08;;
75916;SDS011;64595;50.148;14.334;2023-12-20T11:52:45;3.10;;;1.77;;
75916;SDS011;64595;50.148;14.334;2023-12-20T11:55:11;3.55;;;1.92;;
75916;SDS011;64595;50.148;14.334;2023-12-20T11:57:36;3.10;;;1.80;;
75916;SDS011;64595;50.148;14.334;2023-12-20T12:00:04;3.42;;;2.08;;
75916;SDS011;64595;50.148;14.334;2023-12-20T12:02:30;3.38;;;1.95;;
75916;SDS011;64595;50.148;14.334;2023-12-20T12:04:55;2.55;;;1.92;;
75916;SDS011;64595;50.148;14.334;2023-12-20T12:07:21;3.25;;;2.05;;
75916;SDS011;64595;50.148;14.334;2023-12-20T12:09:46;3.10;;;1.90;;
75916;SDS011;64595;50.148;14.334;2023-12-20T12:12:12;3.10;;;2.03;;
75916;SDS011;64595;50.148;14.334;2023-12-20T12:14:38;2.63;;;1.75;;
75916;SDS011;64595;50.148;14.334;2023-12-20T12:17:05;3.03;;;1.70;;
75916;SDS011;64595;50.148;14.334;2023-12-20T12:19:35;3.97;;;1.98;;
75916;SDS011;64595;50.148;14.334;2023-12-20T12:22:04;4.57;;;2.15;;
75916;SDS011;64595;50.148;14.334;2023-12-20T12:24:29;3.33;;;1.95;;
75916;SDS011;64595;50.148;14.334;2023-12-20T12:26:56;4.85;;;1.95;;
75916;SDS011;64595;50.148;14.334;2023-12-20T12:29:22;2.60;;;1.83;;
75916;SDS011;64595;50.148;14.334;2023-12-20T12:31:47;2.85;;;2.00;;
75916;SDS011;64595;50.148;14.334;2023-12-20T12:34:14;2.45;;;1.88;;
75916;SDS011;64595;50.148;14.334;2023-12-20T12:36:40;2.75;;;1.88;;
75916;SDS011;64595;50.148;14.334;2023-12-20T12:39:05;4.20;;;2.20;;
75916;SDS011;64595;50.148;14.334;2023-12-20T12:41:31;5.72;;;2.38;;
75916;SDS011;64595;50.148;14.334;2023-12-20T12:43:56;4.28;;;1.60;;
75916;SDS011;64595;50.148;14.334;2023-12-20T12:46:22;4.93;;;2.35;;
75916;SDS011;64595;50.148;14.334;2023-12-20T12:48:47;3.25;;;2.22;;
75916;SDS011;64595;50.148;14.334;2023-12-20T12:51:14;3.53;;;2.05;;
75916;SDS011;64595;50.148;14.334;2023-12-20T12:53:40;5.47;;;2.35;;
75916;SDS011;64595;50.148;14.334;2023-12-20T12:56:05;2.83;;;1.90;;
75916;SDS011;64595;50.148;14.334;2023-12-20T12:58:31;7.38;;;2.92;;
75916;SDS011;64595;50.148;14.334;2023-12-20T13:00:57;3.53;;;2.00;;
75916;SDS011;64595;50.148;14.334;2023-12-20T13:03:22;4.78;;;2.50;;
75916;SDS011;64595;50.148;14.334;2023-12-20T13:05:48;3.97;;;2.25;;
75916;SDS011;64595;50.148;14.334;2023-12-20T13:08:15;4.13;;;2.10;;
75916;SDS011;64595;50.148;14.334;2023-12-20T13:10:40;4.18;;;2.08;;
75916;SDS011;64595;50.148;14.334;2023-12-20T13:13:06;4.05;;;2.33;;
75916;SDS011;64595;50.148;14.334;2023-12-20T13:15:31;2.92;;;2.00;;
75916;SDS011;64595;50.148;14.334;2023-12-20T13:17:57;3.25;;;1.80;;
75916;SDS011;64595;50.148;14.334;2023-12-20T13:20:22;6.22;;;1.98;;
75916;SDS011;64595;50.148;14.334;2023-12-20T13:22:48;3.85;;;2.20;;
75916;SDS011;64595;50.148;14.334;2023-12-20T13:25:15;3.38;;;1.90;;
75916;SDS011;64595;50.148;14.334;2023-12-20T13:27:40;5.88;;;2.38;;
75916;SDS011;64595;50.148;14.334;2023-12-20T13:30:06;3.63;;;2.10;;
75916;SDS011;64595;50.148;14.334;2023-12-20T13:32:32;3.28;;;1.92;;
75916;SDS011;64595;50.148;14.334;2023-12-20T13:34:57;3.03;;;1.92;;
75916;SDS011;64595;50.148;14.334;2023-12-20T13:37:23;4.20;;;2.13;;
75916;SDS011;64595;50.148;14.334;2023-12-20T13:39:48;3.08;;;1.65;;
75916;SDS011;64595;50.148;14.334;2023-12-20T13:42:15;5.30;;;2.10;;
75916;SDS011;64595;50.148;14.334;2023-12-20T13:44:41;3.75;;;2.20;;
75916;SDS011;64595;50.148;14.334;2023-12-20T13:47:06;5.50;;;1.92;;
75916;SDS011;64595;50.148;14.334;2023-12-20T13:49:32;2.65;;;2.22;;
75916;SDS011;64595;50.148;14.334;2023-12-20T13:51:57;4.25;;;1.63;;
75916;SDS011;64595;50.148;14.334;2023-12-20T13:54:23;4.30;;;2.15;;
75916;SDS011;64595;50.148;14.334;2023-12-20T13:56:48;2.80;;;1.73;;
75916;SDS011;64595;50.148;14.334;2023-12-20T13:59:15;3.92;;;1.90;;
75916;SDS011;64595;50.148;14.334;2023-12-20T14:01:40;3.25;;;1.90;;
75916;SDS011;64595;50.148;14.334;2023-12-20T14:04:06;4.32;;;2.20;;
75916;SDS011;64595;50.148;14.334;2023-12-20T14:06:31;4.70;;;2.30;;
75916;SDS011;64595;50.148;14.334;2023-12-20T14:08:57;4.32;;;1.70;;
75916;SDS011;64595;50.148;14.334;2023-12-20T14:11:24;3.70;;;2.10;;
75916;SDS011;64595;50.148;14.334;2023-12-20T14:13:51;6.70;;;2.85;;
75916;SDS011;64595;50.148;14.334;2023-12-20T14:16:18;4.68;;;2.15;;
75916;SDS011;64595;50.148;14.334;2023-12-20T14:18:43;4.72;;;2.13;;
75916;SDS011;64595;50.148;14.334;2023-12-20T14:21:08;3.30;;;2.55;;
75916;SDS011;64595;50.148;14.334;2023-12-20T14:23:34;3.97;;;1.80;;
75916;SDS011;64595;50.148;14.334;2023-12-20T14:25:59;3.80;;;2.20;;
75916;SDS011;64595;50.148;14.334;2023-12-20T14:28:25;3.28;;;1.80;;
75916;SDS011;64595;50.148;14.334;2023-12-20T14:30:50;3.92;;;1.77;;